sensor_id;sensor_type;location;lat;lon;timestamp;P1;durP1;ratioP1;P2;durP2;ratioP2
28766;SDS011;15921;52.034;20.650;2023-04-15T00:01:20;12.25;;;8.48;;
28766;SDS011;15921;52.034;20.650;2023-04-15T00:03:46;15.18;;;8.30;;
28766;SDS011;15921;52.034;20.650;2023-04-15T00:06:16;12.55;;;8.55;;
28766;SDS011;15921;52.034;20.650;2023-04-15T00:08:43;15.35;;;8.52;;
28766;SDS011;15921;52.034;20.650;2023-04-15T00:11:09;13.07;;;8.52;;
28766;SDS011;15921;52.034;20.650;2023-04-15T00:13:35;14.93;;;8.57;;
28766;SDS011;15921;52.034;20.650;2023-04-15T00:16:01;13.07;;;8.50;;
28766;SDS011;15921;52.034;20.650;2023-04-15T00:18:27;20.70;;;9.23;;
28766;SDS011;15921;52.034;20.650;2023-04-15T00:20:56;13.40;;;7.72;;
28766;SDS011;15921;52.034;20.650;2023-04-15T00:23:23;13.95;;;8.25;;
28766;SDS011;15921;52.034;20.650;2023-04-15T00:25:48;16.02;;;9.52;;
28766;SDS011;15921;52.034;20.650;2023-04-15T00:28:15;15.57;;;9.80;;
28766;SDS011;15921;52.034;20.650;2023-04-15T00:30:41;13.60;;;8.60;;
28766;SDS011;15921;52.034;20.650;2023-04-15T00:33:07;15.40;;;9.05;;
28766;SDS011;15921;52.034;20.650;2023-04-15T00:35:33;13.93;;;8.68;;
28766;SDS011;15921;52.034;20.650;2023-04-15T00:37:59;12.93;;;9.00;;
28766;SDS011;15921;52.034;20.650;2023-04-15T00:40:25;14.75;;;8.25;;
28766;SDS011;15921;52.034;20.650;2023-04-15T00:42:51;14.80;;;8.95;;
28766;SDS011;15921;52.034;20.650;2023-04-15T00:45:17;15.10;;;9.07;;
28766;SDS011;15921;52.034;20.650;2023-04-15T00:47:43;11.88;;;7.90;;
28766;SDS011;15921;52.034;20.650;2023-04-15T00:50:10;15.45;;;8.98;;
28766;SDS011;15921;52.034;20.650;2023-04-15T00:52:37;15.52;;;9.10;;
28766;SDS011;15921;52.034;20.650;2023-04-15T00:55:03;14.57;;;9.95;;
28766;SDS011;15921;52.034;20.650;2023-04-15T00:57:30;19.23;;;9.38;;
28766;SDS011;15921;52.034;20.650;2023-04-15T00:59:56;16.52;;;9.75;;
28766;SDS011;15921;52.034;20.650;2023-04-15T01:02:23;16.05;;;10.10;;
28766;SDS011;15921;52.034;20.650;2023-04-15T01:04:49;17.52;;;10.52;;
28766;SDS011;15921;52.034;20.650;2023-04-15T01:07:15;17.38;;;10.52;;
28766;SDS011;15921;52.034;20.650;2023-04-15T01:09:41;15.90;;;9.73;;
28766;SDS011;15921;52.034;20.650;2023-04-15T01:12:09;17.13;;;10.48;;
28766;SDS011;15921;52.034;20.650;2023-04-15T01:14:36;16.35;;;10.82;;
28766;SDS011;15921;52.034;20.650;2023-04-15T01:17:02;16.23;;;9.85;;
28766;SDS011;15921;52.034;20.650;2023-04-15T01:19:28;15.15;;;9.98;;
28766;SDS011;15921;52.034;20.650;2023-04-15T01:21:54;17.00;;;10.45;;
28766;SDS011;15921;52.034;20.650;2023-04-15T01:24:21;20.48;;;10.80;;
28766;SDS011;15921;52.034;20.650;2023-04-15T01:26:48;16.23;;;10.93;;
28766;SDS011;15921;52.034;20.650;2023-04-15T01:29:14;18.50;;;11.38;;
28766;SDS011;15921;52.034;20.650;2023-04-15T01:31:40;16.75;;;11.10;;
28766;SDS011;15921;52.034;20.650;2023-04-15T01:34:16;17.70;;;10.98;;
28766;SDS011;15921;52.034;20.650;2023-04-15T01:36:42;16.33;;;10.75;;
28766;SDS011;15921;52.034;20.650;2023-04-15T01:39:08;19.42;;;12.18;;
28766;SDS011;15921;52.034;20.650;2023-04-15T01:41:34;18.98;;;11.80;;
28766;SDS011;15921;52.034;20.650;2023-04-15T01:43:59;15.82;;;11.18;;
28766;SDS011;15921;52.034;20.650;2023-04-15T01:46:26;20.27;;;12.15;;
28766;SDS011;15921;52.034;20.650;2023-04-15T01:48:51;18.35;;;12.02;;
28766;SDS011;15921;52.034;20.650;2023-04-15T01:51:17;22.50;;;12.35;;
28766;SDS011;15921;52.034;20.650;2023-04-15T01:53:43;17.42;;;11.43;;
28766;SDS011;15921;52.034;20.650;2023-04-15T01:56:08;17.58;;;12.23;;
28766;SDS011;15921;52.034;20.650;2023-04-15T01:58:34;21.23;;;12.55;;
28766;SDS011;15921;52.034;20.650;2023-04-15T02:01:01;19.75;;;13.43;;
28766;SDS011;15921;52.034;20.650;2023-04-15T02:03:27;18.58;;;12.27;;
28766;SDS011;15921;52.034;20.650;2023-04-15T02:05:53;17.80;;;11.98;;
28766;SDS011;15921;52.034;20.650;2023-04-15T02:08:19;19.52;;;12.00;;
28766;SDS011;15921;52.034;20.650;2023-04-15T02:10:45;19.52;;;13.50;;
28766;SDS011;15921;52.034;20.650;2023-04-15T02:13:10;22.92;;;13.27;;
28766;SDS011;15921;52.034;20.650;2023-04-15T02:15:36;19.60;;;13.15;;
28766;SDS011;15921;52.034;20.650;2023-04-15T02:18:02;22.17;;;13.30;;
28766;SDS011;15921;52.034;20.650;2023-04-15T02:20:28;20.65;;;13.25;;
28766;SDS011;15921;52.034;20.650;2023-04-15T02:22:57;22.83;;;13.50;;
28766;SDS011;15921;52.034;20.650;2023-04-15T02:25:22;25.85;;;14.63;;
28766;SDS011;15921;52.034;20.650;2023-04-15T02:27:48;20.30;;;13.68;;
28766;SDS011;15921;52.034;20.650;2023-04-15T02:30:14;24.92;;;13.60;;
28766;SDS011;15921;52.034;20.650;2023-04-15T02:32:39;23.17;;;14.52;;
28766;SDS011;15921;52.034;20.650;2023-04-15T02:35:08;24.30;;;14.80;;
28766;SDS011;15921;52.034;20.650;2023-04-15T02:37:35;24.15;;;14.68;;
28766;SDS011;15921;52.034;20.650;2023-04-15T02:40:07;20.83;;;14.18;;
28766;SDS011;15921;52.034;20.650;2023-04-15T02:42:35;20.85;;;13.95;;
28766;SDS011;15921;52.034;20.650;2023-04-15T02:45:00;21.48;;;14.73;;
28766;SDS011;15921;52.034;20.650;2023-04-15T02:47:26;23.20;;;14.30;;
28766;SDS011;15921;52.034;20.650;2023-04-15T02:49:52;26.23;;;15.80;;
28766;SDS011;15921;52.034;20.650;2023-04-15T02:52:18;24.77;;;14.00;;
28766;SDS011;15921;52.034;20.650;2023-04-15T02:54:43;23.45;;;15.15;;
28766;SDS011;15921;52.034;20.650;2023-04-15T02:57:09;22.65;;;14.80;;
28766;SDS011;15921;52.034;20.650;2023-04-15T02:59:35;23.58;;;14.45;;
28766;SDS011;15921;52.034;20.650;2023-04-15T03:02:01;24.83;;;14.80;;
28766;SDS011;15921;52.034;20.650;2023-04-15T03:04:27;25.83;;;15.85;;
28766;SDS011;15921;52.034;20.650;2023-04-15T03:06:54;22.45;;;14.25;;
28766;SDS011;15921;52.034;20.650;2023-04-15T03:09:20;25.70;;;14.98;;
28766;SDS011;15921;52.034;20.650;2023-04-15T03:11:46;27.60;;;17.10;;
28766;SDS011;15921;52.034;20.650;2023-04-15T03:14:12;24.63;;;14.75;;
28766;SDS011;15921;52.034;20.650;2023-04-15T03:16:37;25.30;;;15.73;;
28766;SDS011;15921;52.034;20.650;2023-04-15T03:19:03;27.90;;;16.65;;
28766;SDS011;15921;52.034;20.650;2023-04-15T03:21:29;23.75;;;14.90;;
28766;SDS011;15921;52.034;20.650;2023-04-15T03:23:55;26.63;;;16.13;;
28766;SDS011;15921;52.034;20.650;2023-04-15T03:26:30;28.20;;;14.95;;
28766;SDS011;15921;52.034;20.650;2023-04-15T03:28:56;26.30;;;15.90;;
28766;SDS011;15921;52.034;20.650;2023-04-15T03:31:22;23.27;;;13.82;;
28766;SDS011;15921;52.034;20.650;2023-04-15T03:33:48;28.88;;;16.83;;
28766;SDS011;15921;52.034;20.650;2023-04-15T03:36:14;28.92;;;16.48;;
28766;SDS011;15921;52.034;20.650;2023-04-15T03:38:41;25.17;;;15.35;;
28766;SDS011;15921;52.034;20.650;2023-04-15T03:41:07;24.35;;;15.98;;
28766;SDS011;15921;52.034;20.650;2023-04-15T03:43:33;24.83;;;15.73;;
28766;SDS011;15921;52.034;20.650;2023-04-15T03:45:59;27.30;;;15.73;;
28766;SDS011;15921;52.034;20.650;2023-04-15T03:48:25;25.23;;;15.88;;
28766;SDS011;15921;52.034;20.650;2023-04-15T03:50:51;26.50;;;15.98;;
28766;SDS011;15921;52.034;20.650;2023-04-15T03:53:17;27.50;;;16.10;;
28766;SDS011;15921;52.034;20.650;2023-04-15T03:55:42;26.17;;;16.25;;
28766;SDS011;15921;52.034;20.650;2023-04-15T03:58:08;30.45;;;16.50;;
28766;SDS011;15921;52.034;20.650;2023-04-15T04:00:37;26.05;;;16.50;;
28766;SDS011;15921;52.034;20.650;2023-04-15T04:03:03;25.45;;;16.05;;
28766;SDS011;15921;52.034;20.650;2023-04-15T04:05:29;25.73;;;15.15;;
28766;SDS011;15921;52.034;20.650;2023-04-15T04:07:55;26.33;;;15.85;;
28766;SDS011;15921;52.034;20.650;2023-04-15T04:10:21;28.42;;;18.23;;
28766;SDS011;15921;52.034;20.650;2023-04-15T04:12:46;27.13;;;17.20;;
28766;SDS011;15921;52.034;20.650;2023-04-15T04:15:12;28.30;;;18.33;;
28766;SDS011;15921;52.034;20.650;2023-04-15T04:17:38;29.98;;;18.75;;
28766;SDS011;15921;52.034;20.650;2023-04-15T04:20:03;44.45;;;27.75;;
28766;SDS011;15921;52.034;20.650;2023-04-15T04:22:30;34.80;;;21.25;;
28766;SDS011;15921;52.034;20.650;2023-04-15T04:24:55;32.50;;;22.33;;
28766;SDS011;15921;52.034;20.650;2023-04-15T04:27:23;27.83;;;17.95;;
28766;SDS011;15921;52.034;20.650;2023-04-15T04:29:50;27.80;;;16.90;;
28766;SDS011;15921;52.034;20.650;2023-04-15T04:32:15;24.45;;;16.35;;
28766;SDS011;15921;52.034;20.650;2023-04-15T04:34:41;24.70;;;15.70;;
28766;SDS011;15921;52.034;20.650;2023-04-15T04:37:07;25.08;;;15.80;;
28766;SDS011;15921;52.034;20.650;2023-04-15T04:39:32;25.50;;;15.98;;
28766;SDS011;15921;52.034;20.650;2023-04-15T04:41:58;26.45;;;15.70;;
28766;SDS011;15921;52.034;20.650;2023-04-15T04:44:23;22.10;;;13.60;;
28766;SDS011;15921;52.034;20.650;2023-04-15T04:46:49;20.20;;;13.05;;
28766;SDS011;15921;52.034;20.650;2023-04-15T04:49:15;24.15;;;13.88;;
28766;SDS011;15921;52.034;20.650;2023-04-15T04:51:40;18.80;;;12.90;;
28766;SDS011;15921;52.034;20.650;2023-04-15T04:54:06;52.80;;;34.22;;
28766;SDS011;15921;52.034;20.650;2023-04-15T04:56:32;27.70;;;18.48;;
28766;SDS011;15921;52.034;20.650;2023-04-15T04:58:58;22.98;;;14.70;;
28766;SDS011;15921;52.034;20.650;2023-04-15T05:01:24;22.17;;;14.52;;
28766;SDS011;15921;52.034;20.650;2023-04-15T05:03:51;32.22;;;20.77;;
28766;SDS011;15921;52.034;20.650;2023-04-15T05:06:17;76.63;;;47.42;;
28766;SDS011;15921;52.034;20.650;2023-04-15T05:08:42;30.92;;;20.75;;
28766;SDS011;15921;52.034;20.650;2023-04-15T05:11:08;20.35;;;13.98;;
28766;SDS011;15921;52.034;20.650;2023-04-15T05:13:34;23.92;;;13.23;;
28766;SDS011;15921;52.034;20.650;2023-04-15T05:16:02;233.07;;;116.60;;
28766;SDS011;15921;52.034;20.650;2023-04-15T05:18:29;64.10;;;40.50;;
28766;SDS011;15921;52.034;20.650;2023-04-15T05:20:55;26.40;;;18.20;;
28766;SDS011;15921;52.034;20.650;2023-04-15T05:23:20;20.77;;;14.00;;
28766;SDS011;15921;52.034;20.650;2023-04-15T05:25:46;21.80;;;14.63;;
28766;SDS011;15921;52.034;20.650;2023-04-15T05:28:12;20.08;;;13.70;;
28766;SDS011;15921;52.034;20.650;2023-04-15T05:30:37;29.65;;;20.42;;
28766;SDS011;15921;52.034;20.650;2023-04-15T05:33:03;25.30;;;16.90;;
28766;SDS011;15921;52.034;20.650;2023-04-15T05:35:29;23.20;;;15.70;;
28766;SDS011;15921;52.034;20.650;2023-04-15T05:37:55;21.88;;;15.10;;
28766;SDS011;15921;52.034;20.650;2023-04-15T05:40:21;21.98;;;15.43;;
28766;SDS011;15921;52.034;20.650;2023-04-15T05:42:47;23.67;;;14.23;;
28766;SDS011;15921;52.034;20.650;2023-04-15T05:45:13;23.00;;;15.50;;
28766;SDS011;15921;52.034;20.650;2023-04-15T05:47:38;20.63;;;15.00;;
28766;SDS011;15921;52.034;20.650;2023-04-15T05:50:04;55.00;;;28.95;;
28766;SDS011;15921;52.034;20.650;2023-04-15T05:52:30;31.40;;;20.63;;
28766;SDS011;15921;52.034;20.650;2023-04-15T05:54:56;37.97;;;25.63;;
28766;SDS011;15921;52.034;20.650;2023-04-15T05:57:22;21.90;;;15.68;;
28766;SDS011;15921;52.034;20.650;2023-04-15T05:59:48;24.73;;;16.92;;
28766;SDS011;15921;52.034;20.650;2023-04-15T06:02:16;23.25;;;15.45;;
28766;SDS011;15921;52.034;20.650;2023-04-15T06:04:42;27.08;;;15.63;;
28766;SDS011;15921;52.034;20.650;2023-04-15T06:07:07;22.83;;;14.60;;
28766;SDS011;15921;52.034;20.650;2023-04-15T06:09:33;26.73;;;16.35;;
28766;SDS011;15921;52.034;20.650;2023-04-15T06:12:00;22.05;;;14.55;;
28766;SDS011;15921;52.034;20.650;2023-04-15T06:14:26;26.65;;;15.60;;
28766;SDS011;15921;52.034;20.650;2023-04-15T06:16:52;21.30;;;13.80;;
28766;SDS011;15921;52.034;20.650;2023-04-15T06:19:18;22.33;;;14.60;;
28766;SDS011;15921;52.034;20.650;2023-04-15T06:21:44;22.85;;;13.77;;
28766;SDS011;15921;52.034;20.650;2023-04-15T06:24:10;20.95;;;14.20;;
28766;SDS011;15921;52.034;20.650;2023-04-15T06:26:36;22.83;;;15.85;;
28766;SDS011;15921;52.034;20.650;2023-04-15T06:29:02;24.25;;;14.35;;
28766;SDS011;15921;52.034;20.650;2023-04-15T06:31:28;26.15;;;16.27;;
28766;SDS011;15921;52.034;20.650;2023-04-15T06:33:54;24.80;;;15.43;;
28766;SDS011;15921;52.034;20.650;2023-04-15T06:36:19;23.92;;;14.55;;
28766;SDS011;15921;52.034;20.650;2023-04-15T06:38:45;23.02;;;14.90;;
28766;SDS011;15921;52.034;20.650;2023-04-15T06:41:11;23.15;;;15.20;;
28766;SDS011;15921;52.034;20.650;2023-04-15T06:43:37;20.55;;;14.18;;
28766;SDS011;15921;52.034;20.650;2023-04-15T06:46:03;21.50;;;13.15;;
28766;SDS011;15921;52.034;20.650;2023-04-15T06:48:29;23.02;;;15.10;;
28766;SDS011;15921;52.034;20.650;2023-04-15T06:50:54;27.50;;;16.95;;
28766;SDS011;15921;52.034;20.650;2023-04-15T06:53:20;19.60;;;14.18;;
28766;SDS011;15921;52.034;20.650;2023-04-15T06:55:46;21.40;;;13.80;;
28766;SDS011;15921;52.034;20.650;2023-04-15T06:58:12;22.77;;;14.13;;
28766;SDS011;15921;52.034;20.650;2023-04-15T07:00:38;22.58;;;13.43;;
28766;SDS011;15921;52.034;20.650;2023-04-15T07:03:04;20.08;;;13.45;;
28766;SDS011;15921;52.034;20.650;2023-04-15T07:05:30;23.33;;;14.50;;
28766;SDS011;15921;52.034;20.650;2023-04-15T07:07:56;25.20;;;15.27;;
28766;SDS011;15921;52.034;20.650;2023-04-15T07:10:22;17.25;;;11.32;;
28766;SDS011;15921;52.034;20.650;2023-04-15T07:12:48;19.63;;;12.35;;
28766;SDS011;15921;52.034;20.650;2023-04-15T07:15:15;15.90;;;10.32;;
28766;SDS011;15921;52.034;20.650;2023-04-15T07:17:41;22.10;;;12.63;;
28766;SDS011;15921;52.034;20.650;2023-04-15T07:20:10;16.10;;;10.73;;
28766;SDS011;15921;52.034;20.650;2023-04-15T07:22:36;14.85;;;10.65;;
28766;SDS011;15921;52.034;20.650;2023-04-15T07:25:02;16.00;;;11.25;;
28766;SDS011;15921;52.034;20.650;2023-04-15T07:27:28;13.95;;;10.45;;
28766;SDS011;15921;52.034;20.650;2023-04-15T07:29:55;14.00;;;9.90;;
28766;SDS011;15921;52.034;20.650;2023-04-15T07:32:20;16.00;;;10.23;;
28766;SDS011;15921;52.034;20.650;2023-04-15T07:34:46;14.98;;;10.65;;
28766;SDS011;15921;52.034;20.650;2023-04-15T07:37:12;13.73;;;9.55;;
28766;SDS011;15921;52.034;20.650;2023-04-15T07:39:37;13.40;;;10.00;;
28766;SDS011;15921;52.034;20.650;2023-04-15T07:42:03;13.05;;;9.43;;
28766;SDS011;15921;52.034;20.650;2023-04-15T07:44:29;13.68;;;9.50;;
28766;SDS011;15921;52.034;20.650;2023-04-15T07:46:55;13.43;;;9.30;;
28766;SDS011;15921;52.034;20.650;2023-04-15T07:49:21;13.65;;;9.13;;
28766;SDS011;15921;52.034;20.650;2023-04-15T07:51:47;12.07;;;9.25;;
28766;SDS011;15921;52.034;20.650;2023-04-15T07:54:13;15.95;;;10.88;;
28766;SDS011;15921;52.034;20.650;2023-04-15T07:56:39;17.13;;;12.38;;
28766;SDS011;15921;52.034;20.650;2023-04-15T07:59:05;16.83;;;11.45;;
28766;SDS011;15921;52.034;20.650;2023-04-15T08:01:31;16.40;;;10.77;;
28766;SDS011;15921;52.034;20.650;2023-04-15T08:03:57;15.30;;;10.77;;
28766;SDS011;15921;52.034;20.650;2023-04-15T08:06:23;14.23;;;10.80;;
28766;SDS011;15921;52.034;20.650;2023-04-15T08:08:49;15.55;;;11.18;;
28766;SDS011;15921;52.034;20.650;2023-04-15T08:11:15;15.20;;;12.10;;
28766;SDS011;15921;52.034;20.650;2023-04-15T08:13:41;13.75;;;10.27;;
28766;SDS011;15921;52.034;20.650;2023-04-15T08:18:40;14.30;;;10.38;;
28766;SDS011;15921;52.034;20.650;2023-04-15T08:21:06;14.45;;;9.38;;
28766;SDS011;15921;52.034;20.650;2023-04-15T08:23:32;12.98;;;10.15;;
28766;SDS011;15921;52.034;20.650;2023-04-15T08:25:58;12.07;;;9.50;;
28766;SDS011;15921;52.034;20.650;2023-04-15T08:28:24;10.63;;;8.27;;
28766;SDS011;15921;52.034;20.650;2023-04-15T08:30:51;12.80;;;9.73;;
28766;SDS011;15921;52.034;20.650;2023-04-15T08:33:17;18.92;;;11.95;;
28766;SDS011;15921;52.034;20.650;2023-04-15T08:35:43;17.52;;;10.15;;
28766;SDS011;15921;52.034;20.650;2023-04-15T08:38:08;11.50;;;8.50;;
28766;SDS011;15921;52.034;20.650;2023-04-15T08:40:44;9.85;;;7.22;;
28766;SDS011;15921;52.034;20.650;2023-04-15T08:43:11;18.17;;;11.60;;
28766;SDS011;15921;52.034;20.650;2023-04-15T08:48:10;18.35;;;11.10;;
28766;SDS011;15921;52.034;20.650;2023-04-15T08:50:40;20.48;;;11.35;;
28766;SDS011;15921;52.034;20.650;2023-04-15T08:53:07;21.73;;;12.50;;
28766;SDS011;15921;52.034;20.650;2023-04-15T08:55:35;15.05;;;9.70;;
28766;SDS011;15921;52.034;20.650;2023-04-15T08:58:03;21.95;;;11.38;;
28766;SDS011;15921;52.034;20.650;2023-04-15T09:00:30;24.25;;;14.15;;
28766;SDS011;15921;52.034;20.650;2023-04-15T09:02:57;20.38;;;12.07;;
28766;SDS011;15921;52.034;20.650;2023-04-15T09:05:23;19.48;;;11.48;;
28766;SDS011;15921;52.034;20.650;2023-04-15T09:07:49;15.75;;;9.88;;
28766;SDS011;15921;52.034;20.650;2023-04-15T09:10:15;13.52;;;7.03;;
28766;SDS011;15921;52.034;20.650;2023-04-15T09:12:41;19.77;;;12.35;;
28766;SDS011;15921;52.034;20.650;2023-04-15T09:15:09;11.55;;;7.93;;
28766;SDS011;15921;52.034;20.650;2023-04-15T09:17:40;18.77;;;10.25;;
28766;SDS011;15921;52.034;20.650;2023-04-15T09:20:08;11.27;;;7.43;;
28766;SDS011;15921;52.034;20.650;2023-04-15T09:22:34;10.98;;;7.75;;
28766;SDS011;15921;52.034;20.650;2023-04-15T09:25:02;13.73;;;8.68;;
28766;SDS011;15921;52.034;20.650;2023-04-15T09:27:28;12.05;;;7.57;;
28766;SDS011;15921;52.034;20.650;2023-04-15T09:29:53;17.95;;;11.38;;
28766;SDS011;15921;52.034;20.650;2023-04-15T09:32:20;13.15;;;9.00;;
28766;SDS011;15921;52.034;20.650;2023-04-15T09:34:47;9.35;;;6.65;;
28766;SDS011;15921;52.034;20.650;2023-04-15T09:37:13;8.73;;;6.43;;
28766;SDS011;15921;52.034;20.650;2023-04-15T09:39:49;11.68;;;7.53;;
28766;SDS011;15921;52.034;20.650;2023-04-15T09:42:16;9.55;;;6.28;;
28766;SDS011;15921;52.034;20.650;2023-04-15T09:44:48;8.57;;;6.50;;
28766;SDS011;15921;52.034;20.650;2023-04-15T09:47:31;9.20;;;6.85;;
28766;SDS011;15921;52.034;20.650;2023-04-15T09:50:00;9.02;;;5.97;;
28766;SDS011;15921;52.034;20.650;2023-04-15T09:52:26;10.98;;;7.45;;
28766;SDS011;15921;52.034;20.650;2023-04-15T09:54:53;11.52;;;6.50;;
28766;SDS011;15921;52.034;20.650;2023-04-15T09:57:22;9.23;;;6.63;;
28766;SDS011;15921;52.034;20.650;2023-04-15T09:59:48;8.85;;;6.00;;
28766;SDS011;15921;52.034;20.650;2023-04-15T10:02:15;9.30;;;5.75;;
28766;SDS011;15921;52.034;20.650;2023-04-15T10:04:42;8.68;;;5.30;;
28766;SDS011;15921;52.034;20.650;2023-04-15T10:07:10;8.10;;;5.80;;
28766;SDS011;15921;52.034;20.650;2023-04-15T10:09:39;10.52;;;5.05;;
28766;SDS011;15921;52.034;20.650;2023-04-15T10:12:05;5.95;;;4.63;;
28766;SDS011;15921;52.034;20.650;2023-04-15T10:14:32;6.32;;;4.22;;
28766;SDS011;15921;52.034;20.650;2023-04-15T10:17:03;6.00;;;4.10;;
28766;SDS011;15921;52.034;20.650;2023-04-15T10:19:33;6.32;;;4.72;;
28766;SDS011;15921;52.034;20.650;2023-04-15T10:22:02;6.47;;;4.43;;
28766;SDS011;15921;52.034;20.650;2023-04-15T10:24:31;6.97;;;4.90;;
28766;SDS011;15921;52.034;20.650;2023-04-15T10:27:00;7.95;;;4.97;;
28766;SDS011;15921;52.034;20.650;2023-04-15T10:29:28;7.35;;;4.85;;
28766;SDS011;15921;52.034;20.650;2023-04-15T10:32:03;6.15;;;4.45;;
28766;SDS011;15921;52.034;20.650;2023-04-15T10:34:29;6.38;;;4.68;;
28766;SDS011;15921;52.034;20.650;2023-04-15T10:36:57;5.82;;;4.25;;
28766;SDS011;15921;52.034;20.650;2023-04-15T10:44:31;7.03;;;5.32;;
28766;SDS011;15921;52.034;20.650;2023-04-15T10:46:57;7.50;;;5.05;;
28766;SDS011;15921;52.034;20.650;2023-04-15T10:49:23;7.03;;;5.00;;
28766;SDS011;15921;52.034;20.650;2023-04-15T10:51:50;6.25;;;4.75;;
28766;SDS011;15921;52.034;20.650;2023-04-15T11:05:06;4.85;;;3.80;;
28766;SDS011;15921;52.034;20.650;2023-04-15T11:12:43;5.45;;;4.43;;
28766;SDS011;15921;52.034;20.650;2023-04-15T11:15:26;7.68;;;4.80;;
28766;SDS011;15921;52.034;20.650;2023-04-15T11:18:15;6.90;;;4.28;;
28766;SDS011;15921;52.034;20.650;2023-04-15T11:20:50;5.40;;;4.15;;
28766;SDS011;15921;52.034;20.650;2023-04-15T11:23:27;4.85;;;3.72;;
28766;SDS011;15921;52.034;20.650;2023-04-15T11:25:55;4.78;;;3.33;;
28766;SDS011;15921;52.034;20.650;2023-04-15T11:28:24;6.82;;;3.40;;
28766;SDS011;15921;52.034;20.650;2023-04-15T11:30:51;4.90;;;3.42;;
28766;SDS011;15921;52.034;20.650;2023-04-15T11:33:18;4.18;;;2.97;;
28766;SDS011;15921;52.034;20.650;2023-04-15T11:35:44;5.05;;;3.10;;
28766;SDS011;15921;52.034;20.650;2023-04-15T11:38:10;5.70;;;3.83;;
28766;SDS011;15921;52.034;20.650;2023-04-15T11:40:38;3.70;;;3.10;;
28766;SDS011;15921;52.034;20.650;2023-04-15T11:43:11;4.50;;;3.13;;
28766;SDS011;15921;52.034;20.650;2023-04-15T11:45:54;7.30;;;3.50;;
28766;SDS011;15921;52.034;20.650;2023-04-15T11:48:25;5.47;;;3.03;;
28766;SDS011;15921;52.034;20.650;2023-04-15T11:50:53;4.40;;;3.10;;
28766;SDS011;15921;52.034;20.650;2023-04-15T11:53:20;3.60;;;3.00;;
28766;SDS011;15921;52.034;20.650;2023-04-15T11:55:48;6.10;;;2.90;;
28766;SDS011;15921;52.034;20.650;2023-04-15T12:00:51;4.00;;;2.70;;
28766;SDS011;15921;52.034;20.650;2023-04-15T12:16:45;3.50;;;2.10;;
28766;SDS011;15921;52.034;20.650;2023-04-15T12:19:39;4.00;;;1.90;;
28766;SDS011;15921;52.034;20.650;2023-04-15T12:22:09;3.00;;;1.75;;
28766;SDS011;15921;52.034;20.650;2023-04-15T12:24:40;2.60;;;1.77;;
28766;SDS011;15921;52.034;20.650;2023-04-15T12:27:13;3.00;;;1.92;;
28766;SDS011;15921;52.034;20.650;2023-04-15T12:29:40;3.10;;;1.80;;
28766;SDS011;15921;52.034;20.650;2023-04-15T12:34:36;2.45;;;1.58;;
28766;SDS011;15921;52.034;20.650;2023-04-15T12:37:07;2.15;;;1.70;;
28766;SDS011;15921;52.034;20.650;2023-04-15T12:39:34;3.92;;;1.88;;
28766;SDS011;15921;52.034;20.650;2023-04-15T12:42:02;3.10;;;1.52;;
28766;SDS011;15921;52.034;20.650;2023-04-15T12:44:29;3.72;;;1.80;;
28766;SDS011;15921;52.034;20.650;2023-04-15T12:46:55;2.70;;;1.77;;
28766;SDS011;15921;52.034;20.650;2023-04-15T12:49:22;3.38;;;1.70;;
28766;SDS011;15921;52.034;20.650;2023-04-15T12:51:48;2.80;;;1.77;;
28766;SDS011;15921;52.034;20.650;2023-04-15T12:54:15;3.40;;;1.90;;
28766;SDS011;15921;52.034;20.650;2023-04-15T12:56:42;7.25;;;2.10;;
28766;SDS011;15921;52.034;20.650;2023-04-15T12:59:08;2.60;;;1.67;;
28766;SDS011;15921;52.034;20.650;2023-04-15T13:01:34;2.80;;;1.65;;
28766;SDS011;15921;52.034;20.650;2023-04-15T13:04:00;4.90;;;1.30;;
28766;SDS011;15921;52.034;20.650;2023-04-15T13:06:26;2.35;;;1.40;;
28766;SDS011;15921;52.034;20.650;2023-04-15T13:08:53;2.53;;;1.27;;
28766;SDS011;15921;52.034;20.650;2023-04-15T13:11:20;2.95;;;1.42;;
28766;SDS011;15921;52.034;20.650;2023-04-15T13:13:46;1.70;;;1.25;;
28766;SDS011;15921;52.034;20.650;2023-04-15T13:16:12;2.72;;;1.48;;
28766;SDS011;15921;52.034;20.650;2023-04-15T13:18:38;2.53;;;1.50;;
28766;SDS011;15921;52.034;20.650;2023-04-15T13:21:03;2.63;;;1.27;;
28766;SDS011;15921;52.034;20.650;2023-04-15T13:23:31;1.45;;;0.98;;
28766;SDS011;15921;52.034;20.650;2023-04-15T13:25:57;7.55;;;4.45;;
28766;SDS011;15921;52.034;20.650;2023-04-15T13:28:23;8.63;;;3.15;;
28766;SDS011;15921;52.034;20.650;2023-04-15T13:30:49;4.85;;;3.00;;
28766;SDS011;15921;52.034;20.650;2023-04-15T13:33:15;2.05;;;1.27;;
28766;SDS011;15921;52.034;20.650;2023-04-15T13:35:41;5.93;;;1.33;;
28766;SDS011;15921;52.034;20.650;2023-04-15T13:38:07;1.70;;;1.00;;
28766;SDS011;15921;52.034;20.650;2023-04-15T13:40:33;1.80;;;0.80;;
28766;SDS011;15921;52.034;20.650;2023-04-15T13:42:59;0.95;;;0.70;;
28766;SDS011;15921;52.034;20.650;2023-04-15T13:45:25;2.17;;;1.00;;
28766;SDS011;15921;52.034;20.650;2023-04-15T13:47:51;3.08;;;0.90;;
28766;SDS011;15921;52.034;20.650;2023-04-15T13:50:17;2.25;;;1.10;;
28766;SDS011;15921;52.034;20.650;2023-04-15T13:52:43;3.05;;;0.95;;
28766;SDS011;15921;52.034;20.650;2023-04-15T13:55:09;1.95;;;1.10;;
28766;SDS011;15921;52.034;20.650;2023-04-15T13:57:34;1.25;;;1.00;;
28766;SDS011;15921;52.034;20.650;2023-04-15T14:00:01;3.13;;;1.42;;
28766;SDS011;15921;52.034;20.650;2023-04-15T14:02:28;10.50;;;5.13;;
28766;SDS011;15921;52.034;20.650;2023-04-15T14:04:54;5.30;;;2.78;;
28766;SDS011;15921;52.034;20.650;2023-04-15T14:07:20;3.88;;;1.73;;
28766;SDS011;15921;52.034;20.650;2023-04-15T14:09:46;2.90;;;1.50;;
28766;SDS011;15921;52.034;20.650;2023-04-15T14:12:12;3.53;;;1.40;;
28766;SDS011;15921;52.034;20.650;2023-04-15T14:14:38;1.73;;;1.30;;
28766;SDS011;15921;52.034;20.650;2023-04-15T14:17:04;3.63;;;1.85;;
28766;SDS011;15921;52.034;20.650;2023-04-15T14:19:30;1.83;;;1.15;;
28766;SDS011;15921;52.034;20.650;2023-04-15T14:21:56;1.95;;;1.20;;
28766;SDS011;15921;52.034;20.650;2023-04-15T14:24:23;1.80;;;1.30;;
28766;SDS011;15921;52.034;20.650;2023-04-15T14:26:48;2.90;;;1.42;;
28766;SDS011;15921;52.034;20.650;2023-04-15T14:29:14;3.83;;;1.27;;
28766;SDS011;15921;52.034;20.650;2023-04-15T14:31:40;2.28;;;1.33;;
28766;SDS011;15921;52.034;20.650;2023-04-15T14:34:08;4.03;;;1.70;;
28766;SDS011;15921;52.034;20.650;2023-04-15T14:36:34;4.10;;;1.42;;
28766;SDS011;15921;52.034;20.650;2023-04-15T14:39:00;3.78;;;1.50;;
28766;SDS011;15921;52.034;20.650;2023-04-15T14:41:28;4.88;;;1.90;;
28766;SDS011;15921;52.034;20.650;2023-04-15T14:43:53;6.25;;;2.65;;
28766;SDS011;15921;52.034;20.650;2023-04-15T14:46:20;4.60;;;1.65;;
28766;SDS011;15921;52.034;20.650;2023-04-15T14:48:46;2.83;;;1.63;;
28766;SDS011;15921;52.034;20.650;2023-04-15T14:51:12;4.15;;;1.60;;
28766;SDS011;15921;52.034;20.650;2023-04-15T14:53:38;3.38;;;1.50;;
28766;SDS011;15921;52.034;20.650;2023-04-15T14:56:04;2.97;;;1.67;;
28766;SDS011;15921;52.034;20.650;2023-04-15T14:58:29;3.30;;;1.77;;
28766;SDS011;15921;52.034;20.650;2023-04-15T15:00:56;7.70;;;2.05;;